createdAt,value
2023-02-11T00:02:14.701Z,75.87
2023-02-11T00:04:41.490Z,75.78
2023-02-11T00:07:08.119Z,75.54
2023-02-11T00:09:34.812Z,74.58
2023-02-11T00:12:01.539Z,74.49
2023-02-11T00:14:28.292Z,74.75
2023-02-11T00:16:55.060Z,76.24
2023-02-11T00:19:21.994Z,76.12
2023-02-11T00:21:48.779Z,75.88
2023-02-11T00:24:15.490Z,75.52
2023-02-11T00:26:42.202Z,75.99
2023-02-11T00:29:09.989Z,76.12
2023-02-11T00:31:37.226Z,76.18
2023-02-11T00:34:05.311Z,76.43
2023-02-11T00:36:32.393Z,76.07
2023-02-11T00:39:03.247Z,75.69
2023-02-11T00:41:30.614Z,76.04
2023-02-11T00:43:59.560Z,76.56
2023-02-11T00:46:26.355Z,76.80
2023-02-11T00:48:55.122Z,77.01
2023-02-11T00:51:21.853Z,76.56
2023-02-11T00:53:48.604Z,75.88
2023-02-11T00:56:15.458Z,75.34
2023-02-11T00:58:42.163Z,75.33
2023-02-11T01:01:10.494Z,75.56
2023-02-11T01:03:37.263Z,75.86
2023-02-11T01:06:04.894Z,75.73
2023-02-11T01:08:31.669Z,75.18
2023-02-11T01:11:01.592Z,74.90
2023-02-11T01:13:33.065Z,75.40
2023-02-11T01:16:02.710Z,75.64
2023-02-11T01:18:29.467Z,75.60
2023-02-11T01:20:56.168Z,75.81
2023-02-11T01:23:23.691Z,76.28
2023-02-11T01:25:51.030Z,75.96
2023-02-11T01:28:20.918Z,75.70
2023-02-11T01:30:47.718Z,75.90
2023-02-11T01:33:15.019Z,75.94
2023-02-11T01:35:43.723Z,75.91
2023-02-11T01:38:17.291Z,75.40
2023-02-11T01:40:54.623Z,75.54
2023-02-11T01:43:22.293Z,75.03
2023-02-11T01:46:12.773Z,75.09
2023-02-11T01:48:44.219Z,74.91
2023-02-11T01:51:22.106Z,75.35
2023-02-11T01:54:10.000Z,76.43
2023-02-11T01:57:00.489Z,75.82
2023-02-11T01:59:32.187Z,75.38
2023-02-11T02:02:04.557Z,76.02
2023-02-11T02:04:38.469Z,76.22
2023-02-11T02:07:17.956Z,76.04
2023-02-11T02:09:52.716Z,75.74
2023-02-11T02:12:19.526Z,76.50
2023-02-11T02:14:46.280Z,76.54
2023-02-11T02:17:29.857Z,75.94
2023-02-11T02:20:19.344Z,75.55
2023-02-11T02:23:02.720Z,75.72
2023-02-11T02:25:59.650Z,75.65
2023-02-11T02:28:45.108Z,76.33
2023-02-11T02:31:33.857Z,76.29
2023-02-11T02:34:13.007Z,76.80
2023-02-11T02:37:02.343Z,76.65
2023-02-11T02:39:33.535Z,76.69
2023-02-11T02:42:00.960Z,76.36
2023-02-11T02:44:29.114Z,75.76
2023-02-11T02:46:56.366Z,75.91
2023-02-11T02:49:23.102Z,76.59
2023-02-11T02:52:23.561Z,76.85
2023-02-11T02:54:53.278Z,76.88
2023-02-11T02:57:45.089Z,76.45
2023-02-11T03:00:21.200Z,76.30
2023-02-11T03:03:20.456Z,76.53
2023-02-11T03:05:50.371Z,75.88
2023-02-11T03:08:34.939Z,75.45
2023-02-11T03:11:03.407Z,76.40
2023-02-11T03:13:35.763Z,76.16
2023-02-11T03:16:12.195Z,76.37
2023-02-11T03:18:42.833Z,76.03
2023-02-11T03:21:11.098Z,75.74
2023-02-11T03:23:44.571Z,75.55
2023-02-11T03:26:23.407Z,75.71
2023-02-11T03:29:27.797Z,76.12
2023-02-11T03:32:03.683Z,76.17
2023-02-11T03:34:36.391Z,76.46
2023-02-11T03:37:13.442Z,76.97
2023-02-11T03:39:46.434Z,76.11
2023-02-11T03:42:15.396Z,75.84
2023-02-11T03:44:59.963Z,75.68
2023-02-11T03:47:29.562Z,76.06
2023-02-11T03:49:59.399Z,76.36
2023-02-11T03:52:29.548Z,76.77
2023-02-11T03:54:59.373Z,76.47
2023-02-11T03:57:26.103Z,76.97
2023-02-11T03:59:58.430Z,77.21
2023-02-11T04:02:29.551Z,76.91
2023-02-11T04:04:56.886Z,76.68
2023-02-11T04:07:23.994Z,76.37
2023-02-11T04:09:50.765Z,76.50
2023-02-11T04:12:17.960Z,76.09
2023-02-11T04:14:44.761Z,76.14
2023-02-11T04:17:11.989Z,76.56
2023-02-11T04:19:39.126Z,76.68
2023-02-11T04:22:05.961Z,76.29
2023-02-11T04:24:32.752Z,76.45
2023-02-11T04:26:59.633Z,76.51
2023-02-11T04:29:26.315Z,76.41
2023-02-11T04:31:53.046Z,76.02
2023-02-11T04:34:19.768Z,75.61
2023-02-11T04:36:46.518Z,75.00
2023-02-11T04:39:13.325Z,75.17
2023-02-11T04:41:40.024Z,75.73
2023-02-11T04:44:06.748Z,76.22
2023-02-11T04:46:33.439Z,76.23
2023-02-11T04:49:00.117Z,75.98
2023-02-11T04:51:26.946Z,76.00
2023-02-11T04:53:53.636Z,75.48
2023-02-11T04:56:20.478Z,76.03
2023-02-11T04:58:47.184Z,75.53
2023-02-11T05:01:15.884Z,75.49
2023-02-11T05:03:43.375Z,75.34
2023-02-11T05:06:11.090Z,75.22
2023-02-11T05:08:38.230Z,75.00
2023-02-11T05:11:05.373Z,75.79
2023-02-11T05:13:32.498Z,75.57
2023-02-11T05:15:59.428Z,75.00
2023-02-11T05:18:26.118Z,74.94
2023-02-11T05:20:52.826Z,75.07
2023-02-11T05:23:19.539Z,75.37
2023-02-11T05:25:46.277Z,75.70
2023-02-11T05:28:13.000Z,75.86
2023-02-11T05:30:39.814Z,76.02
2023-02-11T05:33:06.762Z,75.71
2023-02-11T05:35:35.712Z,75.89
2023-02-11T05:38:02.372Z,75.96
2023-02-11T05:40:29.097Z,76.08
2023-02-11T05:42:55.809Z,76.27
2023-02-11T05:45:22.637Z,75.62
2023-02-11T05:47:49.293Z,75.09
2023-02-11T05:50:16.037Z,74.67
2023-02-11T05:52:42.778Z,75.47
2023-02-11T05:55:09.714Z,75.68
2023-02-11T05:57:36.352Z,76.00
2023-02-11T06:00:04.793Z,75.96
2023-02-11T06:02:39.459Z,75.28
2023-02-11T06:05:06.641Z,75.15
2023-02-11T06:07:33.407Z,75.12
2023-02-11T06:10:00.384Z,74.75
2023-02-11T06:12:27.176Z,74.94
2023-02-11T06:14:54.157Z,75.35
2023-02-11T06:17:20.901Z,75.16
2023-02-11T06:19:47.600Z,74.88
2023-02-11T06:22:14.280Z,74.92
2023-02-11T06:24:58.918Z,74.95
2023-02-11T06:27:26.875Z,75.03
2023-02-11T06:29:56.541Z,74.57
2023-02-11T06:32:43.280Z,74.50
2023-02-11T06:35:12.100Z,74.29
2023-02-11T06:37:40.200Z,73.62
2023-02-11T06:40:07.551Z,73.63
2023-02-11T06:42:38.808Z,73.16
2023-02-11T06:45:06.287Z,73.41
2023-02-11T06:47:33.534Z,73.75
2023-02-11T06:50:00.389Z,73.76
2023-02-11T06:52:27.177Z,74.02
2023-02-11T06:54:54.445Z,74.44
2023-02-11T06:57:21.457Z,74.23
2023-02-11T06:59:48.324Z,73.76
2023-02-11T07:02:20.631Z,73.18
2023-02-11T07:04:48.019Z,72.56
2023-02-11T07:07:14.819Z,73.40
2023-02-11T07:09:41.951Z,73.64
2023-02-11T07:12:10.660Z,73.42
2023-02-11T07:14:37.645Z,72.73
2023-02-11T07:17:05.333Z,72.98
2023-02-11T07:19:35.108Z,73.02
2023-02-11T07:22:01.870Z,71.73
2023-02-11T07:24:28.599Z,72.18
2023-02-11T07:26:55.321Z,72.03
2023-02-11T07:29:22.719Z,72.00
2023-02-11T07:32:06.800Z,71.93
2023-02-11T07:34:36.679Z,72.41
2023-02-11T07:37:03.494Z,72.21
2023-02-11T07:39:30.438Z,71.92
2023-02-11T07:41:59.746Z,71.11
2023-02-11T07:44:27.533Z,71.17
2023-02-11T07:46:54.383Z,70.75
2023-02-11T07:49:21.133Z,70.93
2023-02-11T07:51:49.176Z,71.13
2023-02-11T07:54:15.986Z,71.40
2023-02-11T07:56:43.212Z,71.98
2023-02-11T07:59:11.544Z,72.04
2023-02-11T08:01:38.932Z,71.80
2023-02-11T08:04:05.753Z,71.08
2023-02-11T08:06:34.459Z,70.53
2023-02-11T08:09:09.345Z,69.81
2023-02-11T08:11:36.300Z,69.78
2023-02-11T08:14:03.185Z,69.48
2023-02-11T08:16:34.502Z,70.16
2023-02-11T08:19:05.345Z,70.55
2023-02-11T08:21:32.078Z,70.24
2023-02-11T08:23:59.113Z,70.02
2023-02-11T08:26:29.595Z,69.45
2023-02-11T08:28:57.630Z,68.60
2023-02-11T08:31:31.384Z,67.85
2023-02-11T08:33:58.255Z,68.39
2023-02-11T08:36:28.551Z,67.92
2023-02-11T08:39:08.613Z,68.52
2023-02-11T08:41:43.682Z,68.05
2023-02-11T08:44:10.763Z,67.16
2023-02-11T08:46:37.682Z,66.22
2023-02-11T08:49:04.995Z,67.01
2023-02-11T08:51:32.390Z,66.92
2023-02-11T08:54:00.827Z,66.52
2023-02-11T08:56:28.742Z,65.26
2023-02-11T08:58:57.590Z,65.07
2023-02-11T09:01:27.131Z,64.48
2023-02-11T09:03:54.826Z,64.13
2023-02-11T09:06:22.618Z,64.05
2023-02-11T09:08:51.408Z,63.95
2023-02-11T09:11:21.872Z,63.88
2023-02-11T09:13:48.598Z,63.76
2023-02-11T09:16:23.012Z,64.52
2023-02-11T09:18:50.599Z,63.92
2023-02-11T09:21:19.390Z,63.62
2023-02-11T09:23:47.912Z,62.97
2023-02-11T09:26:26.060Z,63.78
2023-02-11T09:28:53.472Z,64.15
2023-02-11T09:31:22.644Z,63.84
2023-02-11T09:33:52.068Z,64.40
2023-02-11T09:36:24.771Z,64.97
2023-02-11T09:38:52.452Z,64.08
2023-02-11T09:41:22.168Z,63.59
2023-02-11T09:43:51.699Z,63.78
2023-02-11T09:46:20.068Z,62.83
2023-02-11T09:48:49.212Z,63.14
2023-02-11T09:51:34.370Z,62.67
2023-02-11T09:54:08.026Z,62.15
2023-02-11T09:56:34.857Z,61.45
2023-02-11T09:59:01.567Z,61.11
2023-02-11T10:01:50.248Z,61.80
2023-02-11T10:04:29.354Z,59.97
2023-02-11T10:07:14.432Z,59.34
2023-02-11T10:10:07.840Z,59.34
2023-02-11T10:12:34.499Z,59.14
2023-02-11T10:15:04.107Z,58.08
2023-02-11T10:17:49.725Z,58.53
2023-02-11T10:20:38.607Z,57.51
2023-02-11T10:23:35.407Z,57.57
2023-02-11T10:26:02.781Z,57.54
2023-02-11T10:28:29.730Z,57.98
2023-02-11T10:31:35.777Z,56.54
2023-02-11T10:34:11.177Z,56.23
2023-02-11T10:36:41.353Z,56.54
2023-02-11T10:39:21.756Z,56.53
2023-02-11T10:41:56.460Z,55.30
2023-02-11T10:44:31.648Z,54.74
2023-02-11T10:47:05.327Z,55.93
2023-02-11T10:49:38.161Z,54.87
2023-02-11T10:52:34.532Z,53.88
2023-02-11T10:55:24.140Z,53.61
2023-02-11T10:57:58.983Z,52.71
2023-02-11T11:00:42.443Z,52.51
2023-02-11T11:03:25.212Z,52.20
2023-02-11T11:06:00.141Z,52.93
2023-02-11T11:08:50.222Z,51.89
2023-02-11T11:11:22.993Z,51.92
2023-02-11T11:13:52.718Z,51.58
2023-02-11T11:16:30.037Z,50.76
2023-02-11T11:19:09.028Z,50.80
2023-02-11T11:21:48.042Z,50.30
2023-02-11T11:24:20.180Z,50.65
2023-02-11T11:26:53.101Z,50.07
2023-02-11T11:29:30.492Z,50.03
2023-02-11T11:32:05.488Z,48.98
2023-02-11T11:34:33.880Z,48.74
2023-02-11T11:37:10.048Z,49.53
2023-02-11T11:39:36.925Z,48.75
2023-02-11T11:42:23.888Z,48.54
2023-02-11T11:45:24.870Z,47.40
2023-02-11T11:48:05.152Z,47.70
2023-02-11T11:50:53.068Z,47.92
2023-02-11T11:54:00.146Z,47.71
2023-02-11T11:56:32.052Z,47.54
2023-02-11T11:59:03.699Z,47.25
2023-02-11T12:01:44.624Z,47.33
2023-02-11T12:04:33.221Z,47.34
2023-02-11T12:07:12.628Z,47.14
2023-02-11T12:09:54.127Z,45.67
2023-02-11T12:12:39.065Z,46.06
2023-02-11T12:15:28.555Z,45.32
2023-02-11T12:22:05.608Z,44.31
2023-02-11T12:25:00.224Z,43.87
2023-02-11T12:27:41.306Z,42.95
2023-02-11T12:30:30.204Z,43.71
2023-02-11T12:33:08.476Z,42.89
2023-02-11T12:35:53.581Z,42.43
2023-02-11T12:38:50.416Z,42.45
2023-02-11T12:41:45.251Z,41.57
2023-02-11T12:44:32.397Z,40.76
2023-02-11T12:47:12.912Z,41.59
2023-02-11T12:49:45.752Z,40.74
2023-02-11T12:52:23.550Z,41.77
2023-02-11T12:54:56.144Z,41.94
2023-02-11T12:57:30.129Z,41.61
2023-02-11T13:00:07.536Z,40.79
2023-02-11T13:02:34.335Z,41.88
2023-02-11T13:05:29.480Z,40.61
2023-02-11T13:08:09.012Z,40.82
2023-02-11T13:10:39.422Z,41.36
2023-02-11T13:13:19.581Z,40.37
2023-02-11T13:16:08.289Z,41.46
2023-02-11T13:18:53.748Z,41.96
2023-02-11T13:21:38.223Z,41.57
2023-02-11T13:24:13.254Z,40.83
2023-02-11T13:26:59.221Z,42.32
2023-02-11T13:29:56.415Z,42.87
2023-02-11T13:32:23.269Z,42.13
2023-02-11T13:34:52.949Z,42.81
2023-02-11T13:37:32.721Z,41.83
2023-02-11T13:40:20.025Z,41.56
2023-02-11T13:43:01.570Z,40.14
2023-02-11T13:45:34.732Z,40.90
2023-02-11T13:48:05.630Z,40.23
2023-02-11T13:51:13.017Z,39.58
2023-02-11T13:53:47.953Z,40.57
2023-02-11T13:56:31.139Z,41.00
2023-02-11T13:59:01.983Z,41.04
2023-02-11T14:02:07.430Z,40.95
2023-02-11T14:04:53.060Z,41.19
2023-02-11T14:07:52.385Z,40.60
2023-02-11T14:10:43.944Z,41.40
2023-02-11T14:13:19.648Z,40.92
2023-02-11T14:15:46.838Z,42.03
2023-02-11T14:18:44.828Z,41.02
2023-02-11T14:21:19.790Z,41.86
2023-02-11T14:23:47.502Z,41.58
2023-02-11T14:26:20.948Z,41.59
2023-02-11T14:29:15.253Z,42.68
2023-02-11T14:31:54.227Z,43.65
2023-02-11T14:34:36.324Z,44.96
2023-02-11T14:37:12.063Z,45.40
2023-02-11T14:39:52.799Z,46.20
2023-02-11T14:42:22.631Z,46.47
2023-02-11T14:44:51.517Z,47.47
2023-02-11T14:47:27.309Z,47.60
2023-02-11T14:49:54.685Z,47.99
2023-02-11T14:52:30.762Z,48.11
2023-02-11T14:55:14.725Z,49.14
2023-02-11T14:57:49.498Z,49.93
2023-02-11T15:00:21.761Z,50.74
2023-02-11T15:02:49.061Z,50.90
2023-02-11T15:05:32.316Z,50.82
2023-02-11T15:08:02.967Z,51.65
2023-02-11T15:10:55.457Z,52.62
2023-02-11T15:13:27.404Z,52.32
2023-02-11T15:15:57.912Z,53.46
2023-02-11T15:18:35.566Z,54.36
2023-02-11T15:21:02.685Z,54.76
2023-02-11T15:23:31.280Z,55.53
2023-02-11T15:26:04.070Z,56.81
2023-02-11T15:28:34.204Z,56.93
2023-02-11T15:31:05.213Z,57.08
2023-02-11T15:33:33.040Z,56.98
2023-02-11T15:36:02.940Z,57.60
2023-02-11T15:38:30.599Z,57.08
2023-02-11T15:41:00.953Z,58.31
2023-02-11T15:43:48.712Z,58.54
2023-02-11T15:46:23.634Z,58.62
2023-02-11T15:48:55.226Z,58.88
2023-02-11T15:51:37.800Z,59.30
2023-02-11T15:54:21.012Z,59.55
2023-02-11T15:56:51.188Z,60.09
2023-02-11T15:59:40.584Z,60.55
2023-02-11T16:02:16.867Z,60.35
2023-02-11T16:05:43.276Z,61.05
2023-02-11T16:08:29.994Z,60.96
2023-02-11T16:11:03.455Z,61.05
2023-02-11T16:13:37.017Z,61.30
2023-02-11T16:16:17.675Z,61.82
2023-02-11T16:19:04.629Z,61.90
2023-02-11T16:21:39.383Z,62.41
2023-02-11T16:24:20.001Z,61.96
2023-02-11T16:26:52.878Z,62.48
2023-02-11T16:29:26.063Z,63.02
2023-02-11T16:32:20.733Z,63.57
2023-02-11T16:34:47.773Z,63.77
2023-02-11T16:37:14.737Z,63.69
2023-02-11T16:39:42.916Z,64.06
2023-02-11T16:42:12.639Z,64.12
2023-02-11T16:44:41.790Z,64.62
2023-02-11T16:47:20.930Z,65.32
2023-02-11T16:49:55.633Z,64.58
2023-02-11T16:52:25.340Z,64.94
2023-02-11T16:54:53.253Z,65.26
2023-02-11T16:57:24.181Z,65.56
2023-02-11T16:59:55.658Z,66.19
2023-02-11T17:02:32.786Z,66.41
2023-02-11T17:05:07.829Z,66.76
2023-02-11T17:07:41.825Z,66.93
2023-02-11T17:10:20.037Z,67.85
2023-02-11T17:12:52.539Z,67.67
2023-02-11T17:15:26.605Z,67.81
2023-02-11T17:18:03.792Z,67.47
2023-02-11T17:20:40.747Z,67.62
2023-02-11T17:23:09.851Z,67.91
2023-02-11T17:25:42.631Z,68.31
2023-02-11T17:28:26.219Z,68.52
2023-02-11T17:30:56.001Z,68.73
2023-02-11T17:33:25.286Z,69.14
2023-02-11T17:35:54.291Z,69.27
2023-02-11T17:38:22.535Z,69.51
2023-02-11T17:41:00.875Z,69.26
2023-02-11T17:43:30.861Z,69.61
2023-02-11T17:45:59.659Z,69.57
2023-02-11T17:48:26.652Z,70.32
2023-02-11T17:50:54.461Z,70.42
2023-02-11T17:53:21.157Z,71.41
2023-02-11T17:55:48.108Z,71.55
2023-02-11T17:58:14.975Z,71.09
2023-02-11T18:00:43.190Z,70.53
2023-02-11T18:03:10.389Z,70.57
2023-02-11T18:05:38.121Z,70.94
2023-02-11T18:08:07.895Z,71.19
2023-02-11T18:10:34.861Z,71.00
2023-02-11T18:13:01.769Z,71.44
2023-02-11T18:15:30.392Z,71.18
2023-02-11T18:18:00.108Z,71.64
2023-02-11T18:20:26.984Z,71.61
2023-02-11T18:22:53.977Z,70.87
2023-02-11T18:25:21.221Z,70.95
2023-02-11T18:27:49.378Z,71.68
2023-02-11T18:30:20.594Z,72.04
2023-02-11T18:32:48.047Z,71.90
2023-02-11T18:35:15.864Z,71.56
2023-02-11T18:37:43.184Z,70.84
2023-02-11T18:40:11.397Z,71.33
2023-02-11T18:42:41.505Z,71.70
2023-02-11T18:45:13.331Z,71.87
2023-02-11T18:47:40.188Z,72.91
2023-02-11T18:50:11.262Z,73.12
2023-02-11T18:52:38.971Z,73.10
2023-02-11T18:55:07.850Z,73.25
2023-02-11T18:57:36.210Z,72.63
2023-02-11T19:00:07.679Z,72.87
2023-02-11T19:02:35.371Z,73.10
2023-02-11T19:05:06.691Z,72.77
2023-02-11T19:07:33.508Z,72.75
2023-02-11T19:10:00.253Z,73.68
2023-02-11T19:12:28.626Z,73.05
2023-02-11T19:14:59.763Z,73.75
2023-02-11T19:17:28.569Z,73.68
2023-02-11T19:20:00.248Z,73.39
2023-02-11T19:22:29.740Z,72.42
2023-02-11T19:25:07.974Z,72.70
2023-02-11T19:27:39.795Z,73.36
2023-02-11T19:30:12.671Z,74.22
2023-02-11T19:32:48.165Z,74.49
2023-02-11T19:35:17.320Z,74.57
2023-02-11T19:37:53.625Z,74.09
2023-02-11T19:41:07.240Z,74.27
2023-02-11T19:43:46.912Z,73.50
2023-02-11T19:46:13.688Z,74.13
2023-02-11T19:48:43.013Z,74.06
2023-02-11T19:51:13.406Z,74.55
2023-02-11T19:53:41.317Z,74.55
2023-02-11T19:56:11.527Z,74.10
2023-02-11T19:58:40.400Z,73.96
2023-02-11T20:01:19.712Z,74.20
2023-02-11T20:06:38.425Z,74.31
2023-02-11T20:09:13.463Z,74.68
2023-02-11T20:11:44.309Z,74.37
2023-02-11T20:14:15.906Z,74.91
2023-02-11T20:16:49.187Z,74.32
2023-02-11T20:19:20.364Z,74.28
2023-02-11T20:21:52.386Z,74.82
2023-02-11T20:24:21.524Z,74.32
2023-02-11T20:26:51.259Z,73.83
2023-02-11T20:29:21.375Z,73.95
2023-02-11T20:31:50.836Z,74.34
2023-02-11T20:34:22.073Z,74.78
2023-02-11T20:36:55.034Z,75.32
2023-02-11T20:39:30.333Z,74.38
2023-02-11T20:42:06.661Z,74.24
2023-02-11T20:44:37.054Z,75.31
2023-02-11T20:47:09.636Z,75.28
2023-02-11T20:49:41.855Z,75.11
2023-02-11T20:52:18.338Z,74.44
2023-02-11T20:55:07.092Z,74.28
2023-02-11T20:57:35.449Z,74.96
2023-02-11T21:00:06.824Z,75.46
2023-02-11T21:02:39.160Z,75.12
2023-02-11T21:05:07.373Z,75.59
2023-02-11T21:07:36.141Z,76.27
2023-02-11T21:10:06.783Z,75.82
2023-02-11T21:12:33.639Z,75.03
2023-02-11T21:15:05.016Z,74.55
2023-02-11T21:17:32.572Z,75.04
2023-02-11T21:20:01.723Z,75.07
2023-02-11T21:22:29.642Z,75.49
2023-02-11T21:24:58.941Z,75.96
2023-02-11T21:27:33.049Z,75.83
2023-02-11T21:30:01.820Z,76.18
2023-02-11T21:32:38.597Z,76.38
2023-02-11T21:35:10.754Z,76.93
2023-02-11T21:37:38.020Z,76.41
2023-02-11T21:40:12.212Z,76.02
2023-02-11T21:42:40.352Z,75.97
2023-02-11T21:45:08.630Z,76.22
2023-02-11T21:47:38.812Z,76.28
2023-02-11T21:50:07.352Z,76.64
2023-02-11T21:52:34.462Z,76.23
2023-02-11T21:55:02.294Z,76.06
2023-02-11T21:57:29.958Z,76.72
2023-02-11T21:59:56.966Z,76.29
2023-02-11T22:02:24.296Z,77.02
2023-02-11T22:04:51.211Z,77.11
2023-02-11T22:07:20.667Z,77.09
2023-02-11T22:09:47.662Z,76.70
2023-02-11T22:12:18.914Z,77.06
2023-02-11T22:14:47.116Z,77.31
2023-02-11T22:17:17.781Z,76.02
2023-02-11T22:19:44.779Z,74.89
2023-02-11T22:22:13.946Z,74.88
2023-02-11T22:24:41.713Z,75.42
2023-02-11T22:27:08.376Z,75.71
2023-02-11T22:29:35.024Z,75.51
2023-02-11T22:32:02.050Z,74.88
2023-02-11T22:34:28.805Z,74.51
2023-02-11T22:36:55.677Z,74.25
2023-02-11T22:39:22.442Z,75.38
2023-02-11T22:41:49.801Z,75.60
2023-02-11T22:44:17.273Z,75.62
2023-02-11T22:46:44.299Z,75.17
2023-02-11T22:49:14.244Z,74.77
2023-02-11T22:51:44.496Z,74.88
2023-02-11T22:54:16.676Z,74.82
2023-02-11T22:56:44.320Z,74.63
2023-02-11T22:59:13.161Z,74.44
2023-02-11T23:01:40.764Z,74.21
2023-02-11T23:04:10.627Z,74.42
2023-02-11T23:06:37.388Z,73.19
2023-02-11T23:09:05.288Z,72.83
2023-02-11T23:11:33.013Z,73.32
2023-02-11T23:14:01.309Z,72.93
2023-02-11T23:16:31.813Z,74.10
2023-02-11T23:19:00.429Z,74.74
2023-02-11T23:21:30.971Z,74.83
2023-02-11T23:24:04.561Z,75.04
2023-02-11T23:26:31.613Z,74.71
2023-02-11T23:28:59.537Z,74.55
2023-02-11T23:31:28.090Z,74.92
2023-02-11T23:33:55.139Z,74.93
2023-02-11T23:36:22.855Z,74.78
2023-02-11T23:38:49.890Z,74.53
2023-02-11T23:41:18.092Z,74.20
2023-02-11T23:43:50.749Z,73.62
2023-02-11T23:46:18.028Z,74.37
2023-02-11T23:48:44.735Z,74.59
2023-02-11T23:51:11.539Z,74.23
2023-02-11T23:53:39.108Z,73.98
2023-02-11T23:56:11.806Z,74.34
2023-02-11T23:58:38.942Z,74.94
